sensor_id;sensor_type;location;lat;lon;timestamp;P1;durP1;ratioP1;P2;durP2;ratioP2
82930;SDS011;72705;53.346;10.248;2023-11-18T00:01:23;33.53;;;14.00;;
82930;SDS011;72705;53.346;10.248;2023-11-18T00:03:48;33.03;;;14.20;;
82930;SDS011;72705;53.346;10.248;2023-11-18T00:06:14;35.97;;;15.67;;
82930;SDS011;72705;53.346;10.248;2023-11-18T00:08:39;35.83;;;16.83;;
82930;SDS011;72705;53.346;10.248;2023-11-18T00:11:04;36.73;;;15.33;;
82930;SDS011;72705;53.346;10.248;2023-11-18T00:13:30;38.85;;;15.05;;
82930;SDS011;72705;53.346;10.248;2023-11-18T00:15:55;35.92;;;14.93;;
82930;SDS011;72705;53.346;10.248;2023-11-18T00:18:21;32.53;;;14.18;;
82930;SDS011;72705;53.346;10.248;2023-11-18T00:20:47;43.97;;;17.97;;
82930;SDS011;72705;53.346;10.248;2023-11-18T00:23:12;50.25;;;19.08;;
82930;SDS011;72705;53.346;10.248;2023-11-18T00:25:37;43.53;;;17.10;;
82930;SDS011;72705;53.346;10.248;2023-11-18T00:28:05;79.35;;;27.52;;
82930;SDS011;72705;53.346;10.248;2023-11-18T00:30:32;59.92;;;21.73;;
82930;SDS011;72705;53.346;10.248;2023-11-18T00:32:58;39.15;;;15.93;;
82930;SDS011;72705;53.346;10.248;2023-11-18T00:35:23;34.35;;;14.88;;
82930;SDS011;72705;53.346;10.248;2023-11-18T00:37:49;35.33;;;15.30;;
82930;SDS011;72705;53.346;10.248;2023-11-18T00:40:15;30.20;;;13.68;;
82930;SDS011;72705;53.346;10.248;2023-11-18T00:42:43;40.42;;;16.67;;
82930;SDS011;72705;53.346;10.248;2023-11-18T00:45:09;32.33;;;14.90;;
82930;SDS011;72705;53.346;10.248;2023-11-18T00:47:37;34.15;;;15.07;;
82930;SDS011;72705;53.346;10.248;2023-11-18T00:50:03;32.28;;;13.52;;
82930;SDS011;72705;53.346;10.248;2023-11-18T00:52:33;32.58;;;14.57;;
82930;SDS011;72705;53.346;10.248;2023-11-18T00:54:59;35.30;;;14.35;;
82930;SDS011;72705;53.346;10.248;2023-11-18T00:57:24;35.92;;;14.23;;
82930;SDS011;72705;53.346;10.248;2023-11-18T00:59:50;38.05;;;15.52;;
82930;SDS011;72705;53.346;10.248;2023-11-18T01:02:15;32.23;;;14.70;;
82930;SDS011;72705;53.346;10.248;2023-11-18T01:04:41;32.65;;;14.68;;
82930;SDS011;72705;53.346;10.248;2023-11-18T01:07:07;40.67;;;14.93;;
82930;SDS011;72705;53.346;10.248;2023-11-18T01:09:33;29.73;;;13.60;;
82930;SDS011;72705;53.346;10.248;2023-11-18T01:12:03;33.08;;;14.68;;
82930;SDS011;72705;53.346;10.248;2023-11-18T01:14:30;34.60;;;13.13;;
82930;SDS011;72705;53.346;10.248;2023-11-18T01:16:56;29.00;;;12.27;;
82930;SDS011;72705;53.346;10.248;2023-11-18T01:19:21;41.75;;;14.23;;
82930;SDS011;72705;53.346;10.248;2023-11-18T01:21:46;36.30;;;13.00;;
82930;SDS011;72705;53.346;10.248;2023-11-18T01:24:12;34.07;;;14.13;;
82930;SDS011;72705;53.346;10.248;2023-11-18T01:26:37;39.50;;;14.93;;
82930;SDS011;72705;53.346;10.248;2023-11-18T01:29:02;37.00;;;13.85;;
82930;SDS011;72705;53.346;10.248;2023-11-18T01:31:28;33.50;;;14.35;;
82930;SDS011;72705;53.346;10.248;2023-11-18T01:33:53;33.57;;;13.97;;
82930;SDS011;72705;53.346;10.248;2023-11-18T01:36:21;35.33;;;14.88;;
82930;SDS011;72705;53.346;10.248;2023-11-18T01:38:46;37.45;;;15.13;;
82930;SDS011;72705;53.346;10.248;2023-11-18T01:41:11;35.80;;;14.63;;
82930;SDS011;72705;53.346;10.248;2023-11-18T01:43:36;38.07;;;15.63;;
82930;SDS011;72705;53.346;10.248;2023-11-18T01:46:02;37.28;;;15.18;;
82930;SDS011;72705;53.346;10.248;2023-11-18T01:48:30;37.90;;;15.73;;
82930;SDS011;72705;53.346;10.248;2023-11-18T01:50:58;37.20;;;14.98;;
82930;SDS011;72705;53.346;10.248;2023-11-18T01:53:24;40.03;;;15.43;;
82930;SDS011;72705;53.346;10.248;2023-11-18T01:55:51;38.60;;;15.43;;
82930;SDS011;72705;53.346;10.248;2023-11-18T01:58:17;39.80;;;15.43;;
82930;SDS011;72705;53.346;10.248;2023-11-18T02:00:45;38.28;;;15.18;;
82930;SDS011;72705;53.346;10.248;2023-11-18T02:03:11;39.72;;;15.27;;
82930;SDS011;72705;53.346;10.248;2023-11-18T02:05:37;39.83;;;15.50;;
82930;SDS011;72705;53.346;10.248;2023-11-18T02:08:03;38.47;;;14.30;;
82930;SDS011;72705;53.346;10.248;2023-11-18T02:13:33;27.85;;;12.57;;
82930;SDS011;72705;53.346;10.248;2023-11-18T02:15:59;37.42;;;14.77;;
82930;SDS011;72705;53.346;10.248;2023-11-18T02:18:25;38.42;;;16.88;;
82930;SDS011;72705;53.346;10.248;2023-11-18T02:20:54;37.92;;;14.02;;
82930;SDS011;72705;53.346;10.248;2023-11-18T02:25:48;36.85;;;15.48;;
82930;SDS011;72705;53.346;10.248;2023-11-18T02:28:14;31.92;;;15.02;;
82930;SDS011;72705;53.346;10.248;2023-11-18T02:30:40;35.95;;;15.55;;
82930;SDS011;72705;53.346;10.248;2023-11-18T02:33:12;41.83;;;15.38;;
82930;SDS011;72705;53.346;10.248;2023-11-18T02:36:20;36.15;;;14.43;;
82930;SDS011;72705;53.346;10.248;2023-11-18T02:41:23;39.00;;;15.05;;
82930;SDS011;72705;53.346;10.248;2023-11-18T02:43:50;37.17;;;14.50;;
82930;SDS011;72705;53.346;10.248;2023-11-18T02:46:15;32.60;;;13.73;;
82930;SDS011;72705;53.346;10.248;2023-11-18T02:48:42;31.70;;;13.13;;
82930;SDS011;72705;53.346;10.248;2023-11-18T02:51:08;32.15;;;12.93;;
82930;SDS011;72705;53.346;10.248;2023-11-18T02:53:34;37.15;;;13.45;;
82930;SDS011;72705;53.346;10.248;2023-11-18T02:55:59;36.53;;;14.13;;
82930;SDS011;72705;53.346;10.248;2023-11-18T02:58:27;36.65;;;13.88;;
82930;SDS011;72705;53.346;10.248;2023-11-18T03:00:56;33.67;;;13.57;;
82930;SDS011;72705;53.346;10.248;2023-11-18T03:03:22;32.03;;;13.70;;
82930;SDS011;72705;53.346;10.248;2023-11-18T03:05:47;37.73;;;14.97;;
82930;SDS011;72705;53.346;10.248;2023-11-18T03:08:14;36.70;;;13.63;;
82930;SDS011;72705;53.346;10.248;2023-11-18T03:10:40;30.42;;;12.13;;
82930;SDS011;72705;53.346;10.248;2023-11-18T03:13:09;34.20;;;14.70;;
82930;SDS011;72705;53.346;10.248;2023-11-18T03:15:34;33.22;;;12.98;;
82930;SDS011;72705;53.346;10.248;2023-11-18T03:18:00;31.77;;;13.05;;
82930;SDS011;72705;53.346;10.248;2023-11-18T03:20:26;33.17;;;12.73;;
82930;SDS011;72705;53.346;10.248;2023-11-18T03:22:51;31.20;;;13.15;;
82930;SDS011;72705;53.346;10.248;2023-11-18T03:25:17;36.03;;;12.43;;
82930;SDS011;72705;53.346;10.248;2023-11-18T03:27:44;28.38;;;12.45;;
82930;SDS011;72705;53.346;10.248;2023-11-18T03:30:10;34.65;;;14.35;;
82930;SDS011;72705;53.346;10.248;2023-11-18T03:32:36;34.10;;;13.15;;
82930;SDS011;72705;53.346;10.248;2023-11-18T03:35:05;35.38;;;13.60;;
82930;SDS011;72705;53.346;10.248;2023-11-18T03:37:35;34.28;;;13.55;;
82930;SDS011;72705;53.346;10.248;2023-11-18T03:40:03;32.08;;;13.15;;
82930;SDS011;72705;53.346;10.248;2023-11-18T03:42:32;32.53;;;12.38;;
82930;SDS011;72705;53.346;10.248;2023-11-18T03:44:58;34.53;;;14.10;;
82930;SDS011;72705;53.346;10.248;2023-11-18T03:47:23;30.87;;;12.50;;
82930;SDS011;72705;53.346;10.248;2023-11-18T03:49:49;31.25;;;13.15;;
82930;SDS011;72705;53.346;10.248;2023-11-18T03:52:15;34.47;;;14.05;;
82930;SDS011;72705;53.346;10.248;2023-11-18T03:54:40;26.37;;;11.30;;
82930;SDS011;72705;53.346;10.248;2023-11-18T03:57:06;29.98;;;11.82;;
82930;SDS011;72705;53.346;10.248;2023-11-18T03:59:32;29.00;;;12.18;;
82930;SDS011;72705;53.346;10.248;2023-11-18T04:01:57;33.07;;;13.10;;
82930;SDS011;72705;53.346;10.248;2023-11-18T04:04:23;35.72;;;12.70;;
82930;SDS011;72705;53.346;10.248;2023-11-18T04:06:48;32.07;;;12.63;;
82930;SDS011;72705;53.346;10.248;2023-11-18T04:09:14;39.33;;;12.93;;
82930;SDS011;72705;53.346;10.248;2023-11-18T04:11:39;28.38;;;11.98;;
82930;SDS011;72705;53.346;10.248;2023-11-18T04:14:05;34.47;;;12.43;;
82930;SDS011;72705;53.346;10.248;2023-11-18T04:16:30;28.95;;;11.93;;
82930;SDS011;72705;53.346;10.248;2023-11-18T04:18:56;31.55;;;12.40;;
82930;SDS011;72705;53.346;10.248;2023-11-18T04:21:21;32.10;;;11.97;;
82930;SDS011;72705;53.346;10.248;2023-11-18T04:23:47;29.55;;;11.15;;
82930;SDS011;72705;53.346;10.248;2023-11-18T04:26:13;27.88;;;11.13;;
82930;SDS011;72705;53.346;10.248;2023-11-18T04:28:38;33.70;;;13.27;;
82930;SDS011;72705;53.346;10.248;2023-11-18T04:31:04;36.33;;;12.30;;
82930;SDS011;72705;53.346;10.248;2023-11-18T04:33:30;32.78;;;12.77;;
82930;SDS011;72705;53.346;10.248;2023-11-18T04:35:56;34.67;;;12.38;;
82930;SDS011;72705;53.346;10.248;2023-11-18T04:38:22;31.05;;;12.75;;
82930;SDS011;72705;53.346;10.248;2023-11-18T04:40:47;36.80;;;12.82;;
82930;SDS011;72705;53.346;10.248;2023-11-18T04:43:13;35.80;;;13.18;;
82930;SDS011;72705;53.346;10.248;2023-11-18T04:45:38;36.67;;;13.23;;
82930;SDS011;72705;53.346;10.248;2023-11-18T04:48:04;36.50;;;13.30;;
82930;SDS011;72705;53.346;10.248;2023-11-18T04:50:30;35.20;;;13.02;;
82930;SDS011;72705;53.346;10.248;2023-11-18T04:52:55;39.00;;;13.15;;
82930;SDS011;72705;53.346;10.248;2023-11-18T04:55:21;34.70;;;13.10;;
82930;SDS011;72705;53.346;10.248;2023-11-18T04:57:47;37.40;;;13.82;;
82930;SDS011;72705;53.346;10.248;2023-11-18T05:00:12;38.90;;;13.88;;
82930;SDS011;72705;53.346;10.248;2023-11-18T05:02:42;40.15;;;13.52;;
82930;SDS011;72705;53.346;10.248;2023-11-18T05:05:08;32.72;;;11.95;;
82930;SDS011;72705;53.346;10.248;2023-11-18T05:07:34;46.55;;;15.50;;
82930;SDS011;72705;53.346;10.248;2023-11-18T05:10:00;45.08;;;15.68;;
82930;SDS011;72705;53.346;10.248;2023-11-18T05:12:26;51.80;;;15.10;;
82930;SDS011;72705;53.346;10.248;2023-11-18T05:14:54;43.97;;;14.93;;
82930;SDS011;72705;53.346;10.248;2023-11-18T05:17:20;46.45;;;16.08;;
82930;SDS011;72705;53.346;10.248;2023-11-18T05:19:45;47.67;;;14.80;;
82930;SDS011;72705;53.346;10.248;2023-11-18T05:22:10;44.87;;;15.67;;
82930;SDS011;72705;53.346;10.248;2023-11-18T05:24:36;53.03;;;16.17;;
82930;SDS011;72705;53.346;10.248;2023-11-18T05:27:01;47.95;;;15.55;;
82930;SDS011;72705;53.346;10.248;2023-11-18T05:29:30;42.08;;;14.75;;
82930;SDS011;72705;53.346;10.248;2023-11-18T05:31:55;50.15;;;14.55;;
82930;SDS011;72705;53.346;10.248;2023-11-18T05:34:21;51.03;;;15.93;;
82930;SDS011;72705;53.346;10.248;2023-11-18T05:36:47;43.58;;;14.20;;
82930;SDS011;72705;53.346;10.248;2023-11-18T05:39:13;46.80;;;14.15;;
82930;SDS011;72705;53.346;10.248;2023-11-18T05:41:40;40.80;;;13.82;;
82930;SDS011;72705;53.346;10.248;2023-11-18T05:44:06;46.70;;;15.10;;
82930;SDS011;72705;53.346;10.248;2023-11-18T05:46:34;55.63;;;15.10;;
82930;SDS011;72705;53.346;10.248;2023-11-18T05:49:03;50.15;;;15.77;;
82930;SDS011;72705;53.346;10.248;2023-11-18T05:51:32;57.75;;;15.50;;
82930;SDS011;72705;53.346;10.248;2023-11-18T05:53:58;55.35;;;16.17;;
82930;SDS011;72705;53.346;10.248;2023-11-18T05:56:23;59.17;;;15.67;;
82930;SDS011;72705;53.346;10.248;2023-11-18T05:58:49;56.67;;;16.80;;
82930;SDS011;72705;53.346;10.248;2023-11-18T06:01:15;51.50;;;17.13;;
82930;SDS011;72705;53.346;10.248;2023-11-18T06:03:42;55.50;;;16.48;;
82930;SDS011;72705;53.346;10.248;2023-11-18T06:06:09;53.80;;;16.17;;
82930;SDS011;72705;53.346;10.248;2023-11-18T06:08:36;54.40;;;14.48;;
82930;SDS011;72705;53.346;10.248;2023-11-18T06:11:05;56.53;;;14.98;;
82930;SDS011;72705;53.346;10.248;2023-11-18T06:13:38;58.65;;;15.90;;
82930;SDS011;72705;53.346;10.248;2023-11-18T06:16:09;49.17;;;14.60;;
82930;SDS011;72705;53.346;10.248;2023-11-18T06:18:42;38.35;;;12.93;;
82930;SDS011;72705;53.346;10.248;2023-11-18T06:21:11;46.45;;;13.43;;
82930;SDS011;72705;53.346;10.248;2023-11-18T06:23:42;48.13;;;15.15;;
82930;SDS011;72705;53.346;10.248;2023-11-18T06:26:08;48.42;;;14.75;;
82930;SDS011;72705;53.346;10.248;2023-11-18T06:28:39;47.58;;;15.23;;
82930;SDS011;72705;53.346;10.248;2023-11-18T06:31:05;45.45;;;13.23;;
82930;SDS011;72705;53.346;10.248;2023-11-18T06:33:36;47.35;;;14.27;;
82930;SDS011;72705;53.346;10.248;2023-11-18T06:36:02;57.65;;;16.08;;
82930;SDS011;72705;53.346;10.248;2023-11-18T06:38:29;49.08;;;16.00;;
82930;SDS011;72705;53.346;10.248;2023-11-18T06:40:55;54.70;;;16.63;;
82930;SDS011;72705;53.346;10.248;2023-11-18T06:43:23;46.08;;;13.85;;
82930;SDS011;72705;53.346;10.248;2023-11-18T06:45:49;58.55;;;16.38;;
82930;SDS011;72705;53.346;10.248;2023-11-18T06:48:15;51.63;;;14.50;;
82930;SDS011;72705;53.346;10.248;2023-11-18T06:50:40;48.17;;;15.07;;
82930;SDS011;72705;53.346;10.248;2023-11-18T06:53:08;47.38;;;13.13;;
82930;SDS011;72705;53.346;10.248;2023-11-18T06:55:35;49.70;;;14.32;;
82930;SDS011;72705;53.346;10.248;2023-11-18T06:58:01;38.33;;;13.82;;
82930;SDS011;72705;53.346;10.248;2023-11-18T07:00:27;52.75;;;13.88;;
82930;SDS011;72705;53.346;10.248;2023-11-18T07:02:55;54.08;;;14.23;;
82930;SDS011;72705;53.346;10.248;2023-11-18T07:05:21;66.97;;;18.23;;
82930;SDS011;72705;53.346;10.248;2023-11-18T07:07:49;66.50;;;17.83;;
82930;SDS011;72705;53.346;10.248;2023-11-18T07:10:17;67.88;;;19.52;;
82930;SDS011;72705;53.346;10.248;2023-11-18T07:12:46;72.20;;;18.00;;
82930;SDS011;72705;53.346;10.248;2023-11-18T07:15:13;64.18;;;16.65;;
82930;SDS011;72705;53.346;10.248;2023-11-18T07:17:38;54.85;;;14.82;;
82930;SDS011;72705;53.346;10.248;2023-11-18T07:20:04;63.80;;;15.00;;
82930;SDS011;72705;53.346;10.248;2023-11-18T07:22:30;55.08;;;15.40;;
82930;SDS011;72705;53.346;10.248;2023-11-18T07:24:56;59.58;;;14.15;;
82930;SDS011;72705;53.346;10.248;2023-11-18T07:27:22;52.53;;;16.05;;
82930;SDS011;72705;53.346;10.248;2023-11-18T07:29:48;60.35;;;17.15;;
82930;SDS011;72705;53.346;10.248;2023-11-18T07:32:13;58.50;;;17.42;;
82930;SDS011;72705;53.346;10.248;2023-11-18T07:34:39;69.28;;;16.67;;
82930;SDS011;72705;53.346;10.248;2023-11-18T07:37:06;64.30;;;18.00;;
82930;SDS011;72705;53.346;10.248;2023-11-18T07:39:33;75.20;;;18.52;;
82930;SDS011;72705;53.346;10.248;2023-11-18T07:42:13;75.78;;;18.17;;
82930;SDS011;72705;53.346;10.248;2023-11-18T07:44:39;72.72;;;18.15;;
82930;SDS011;72705;53.346;10.248;2023-11-18T07:47:05;74.55;;;17.52;;
82930;SDS011;72705;53.346;10.248;2023-11-18T07:49:31;67.10;;;16.70;;
82930;SDS011;72705;53.346;10.248;2023-11-18T07:51:56;51.22;;;13.95;;
82930;SDS011;72705;53.346;10.248;2023-11-18T07:54:22;59.97;;;17.70;;
82930;SDS011;72705;53.346;10.248;2023-11-18T07:56:49;57.92;;;16.05;;
82930;SDS011;72705;53.346;10.248;2023-11-18T07:59:16;52.72;;;16.55;;
82930;SDS011;72705;53.346;10.248;2023-11-18T08:01:43;56.60;;;15.45;;
82930;SDS011;72705;53.346;10.248;2023-11-18T08:04:09;52.13;;;14.60;;
82930;SDS011;72705;53.346;10.248;2023-11-18T08:06:34;50.67;;;16.05;;
82930;SDS011;72705;53.346;10.248;2023-11-18T08:09:00;51.17;;;14.53;;
82930;SDS011;72705;53.346;10.248;2023-11-18T08:11:25;48.63;;;15.03;;
82930;SDS011;72705;53.346;10.248;2023-11-18T08:13:50;44.35;;;14.77;;
82930;SDS011;72705;53.346;10.248;2023-11-18T08:16:16;46.17;;;15.60;;
82930;SDS011;72705;53.346;10.248;2023-11-18T08:18:41;44.67;;;15.10;;
82930;SDS011;72705;53.346;10.248;2023-11-18T08:21:07;47.13;;;13.88;;
82930;SDS011;72705;53.346;10.248;2023-11-18T08:23:32;44.85;;;14.00;;
82930;SDS011;72705;53.346;10.248;2023-11-18T08:25:58;40.25;;;13.18;;
82930;SDS011;72705;53.346;10.248;2023-11-18T08:28:24;39.70;;;12.30;;
82930;SDS011;72705;53.346;10.248;2023-11-18T08:30:50;37.20;;;13.27;;
82930;SDS011;72705;53.346;10.248;2023-11-18T08:33:16;42.75;;;12.73;;
82930;SDS011;72705;53.346;10.248;2023-11-18T08:35:42;39.42;;;13.32;;
82930;SDS011;72705;53.346;10.248;2023-11-18T08:38:07;38.15;;;11.40;;
82930;SDS011;72705;53.346;10.248;2023-11-18T08:40:33;39.58;;;11.52;;
82930;SDS011;72705;53.346;10.248;2023-11-18T08:42:59;33.30;;;10.55;;
82930;SDS011;72705;53.346;10.248;2023-11-18T08:45:27;38.58;;;11.27;;
82930;SDS011;72705;53.346;10.248;2023-11-18T08:47:54;29.27;;;10.82;;
82930;SDS011;72705;53.346;10.248;2023-11-18T08:50:25;36.75;;;12.68;;
82930;SDS011;72705;53.346;10.248;2023-11-18T08:52:51;36.75;;;12.50;;
82930;SDS011;72705;53.346;10.248;2023-11-18T08:55:23;36.65;;;13.40;;
82930;SDS011;72705;53.346;10.248;2023-11-18T08:58:04;34.03;;;11.75;;
82930;SDS011;72705;53.346;10.248;2023-11-18T09:00:40;32.00;;;10.73;;
82930;SDS011;72705;53.346;10.248;2023-11-18T09:03:15;38.63;;;11.57;;
82930;SDS011;72705;53.346;10.248;2023-11-18T09:08:26;37.15;;;12.18;;
82930;SDS011;72705;53.346;10.248;2023-11-18T09:10:54;47.40;;;14.77;;
82930;SDS011;72705;53.346;10.248;2023-11-18T09:13:21;34.55;;;10.80;;
82930;SDS011;72705;53.346;10.248;2023-11-18T09:15:48;32.92;;;12.07;;
82930;SDS011;72705;53.346;10.248;2023-11-18T09:18:14;30.73;;;9.90;;
82930;SDS011;72705;53.346;10.248;2023-11-18T09:20:39;35.40;;;11.02;;
82930;SDS011;72705;53.346;10.248;2023-11-18T09:23:06;37.38;;;13.25;;
82930;SDS011;72705;53.346;10.248;2023-11-18T09:25:32;31.20;;;10.77;;
82930;SDS011;72705;53.346;10.248;2023-11-18T09:27:57;37.00;;;11.23;;
82930;SDS011;72705;53.346;10.248;2023-11-18T09:30:23;34.17;;;12.18;;
82930;SDS011;72705;53.346;10.248;2023-11-18T09:32:49;40.10;;;12.10;;
82930;SDS011;72705;53.346;10.248;2023-11-18T09:35:16;31.38;;;9.60;;
82930;SDS011;72705;53.346;10.248;2023-11-18T09:37:44;32.58;;;11.43;;
82930;SDS011;72705;53.346;10.248;2023-11-18T09:40:13;29.73;;;10.55;;
82930;SDS011;72705;53.346;10.248;2023-11-18T09:42:38;27.25;;;11.88;;
82930;SDS011;72705;53.346;10.248;2023-11-18T09:45:04;33.50;;;12.35;;
82930;SDS011;72705;53.346;10.248;2023-11-18T09:47:34;35.33;;;11.23;;
82930;SDS011;72705;53.346;10.248;2023-11-18T09:50:06;32.88;;;11.93;;
82930;SDS011;72705;53.346;10.248;2023-11-18T09:52:37;35.30;;;11.77;;
82930;SDS011;72705;53.346;10.248;2023-11-18T09:55:20;30.85;;;10.32;;
82930;SDS011;72705;53.346;10.248;2023-11-18T09:57:53;36.42;;;11.95;;
82930;SDS011;72705;53.346;10.248;2023-11-18T10:00:25;26.85;;;10.45;;
82930;SDS011;72705;53.346;10.248;2023-11-18T10:02:57;27.65;;;9.90;;
82930;SDS011;72705;53.346;10.248;2023-11-18T10:05:25;31.00;;;11.43;;
82930;SDS011;72705;53.346;10.248;2023-11-18T10:07:52;24.05;;;10.93;;
82930;SDS011;72705;53.346;10.248;2023-11-18T10:10:18;28.90;;;11.13;;
82930;SDS011;72705;53.346;10.248;2023-11-18T10:12:49;28.08;;;10.35;;
82930;SDS011;72705;53.346;10.248;2023-11-18T10:15:23;25.65;;;10.00;;
82930;SDS011;72705;53.346;10.248;2023-11-18T10:17:49;24.58;;;9.40;;
82930;SDS011;72705;53.346;10.248;2023-11-18T10:23:13;18.92;;;8.40;;
82930;SDS011;72705;53.346;10.248;2023-11-18T10:25:54;25.15;;;8.82;;
82930;SDS011;72705;53.346;10.248;2023-11-18T10:28:33;22.58;;;9.63;;
82930;SDS011;72705;53.346;10.248;2023-11-18T10:31:05;19.52;;;9.25;;
82930;SDS011;72705;53.346;10.248;2023-11-18T10:33:33;23.10;;;8.63;;
82930;SDS011;72705;53.346;10.248;2023-11-18T10:36:01;23.85;;;8.27;;
82930;SDS011;72705;53.346;10.248;2023-11-18T10:38:48;24.48;;;8.27;;
82930;SDS011;72705;53.346;10.248;2023-11-18T10:41:20;21.50;;;8.50;;
82930;SDS011;72705;53.346;10.248;2023-11-18T10:43:45;24.33;;;8.68;;
82930;SDS011;72705;53.346;10.248;2023-11-18T10:46:13;19.75;;;9.15;;
82930;SDS011;72705;53.346;10.248;2023-11-18T10:48:43;16.45;;;6.82;;
82930;SDS011;72705;53.346;10.248;2023-11-18T10:51:12;16.20;;;6.72;;
82930;SDS011;72705;53.346;10.248;2023-11-18T10:53:44;15.40;;;6.75;;
82930;SDS011;72705;53.346;10.248;2023-11-18T10:56:26;14.23;;;6.10;;
82930;SDS011;72705;53.346;10.248;2023-11-18T10:58:58;13.48;;;5.70;;
82930;SDS011;72705;53.346;10.248;2023-11-18T11:01:31;9.73;;;4.95;;
82930;SDS011;72705;53.346;10.248;2023-11-18T11:03:57;12.95;;;5.28;;
82930;SDS011;72705;53.346;10.248;2023-11-18T11:06:24;10.77;;;4.40;;
82930;SDS011;72705;53.346;10.248;2023-11-18T11:08:53;9.52;;;4.38;;
82930;SDS011;72705;53.346;10.248;2023-11-18T11:11:22;9.00;;;4.55;;
82930;SDS011;72705;53.346;10.248;2023-11-18T11:13:58;10.90;;;4.55;;
82930;SDS011;72705;53.346;10.248;2023-11-18T11:16:33;9.38;;;5.00;;
82930;SDS011;72705;53.346;10.248;2023-11-18T11:19:04;8.27;;;4.15;;
82930;SDS011;72705;53.346;10.248;2023-11-18T11:21:34;9.50;;;4.03;;
82930;SDS011;72705;53.346;10.248;2023-11-18T11:24:14;9.20;;;3.63;;
82930;SDS011;72705;53.346;10.248;2023-11-18T11:35:23;6.45;;;4.22;;
82930;SDS011;72705;53.346;10.248;2023-11-18T11:37:53;8.52;;;4.82;;
82930;SDS011;72705;53.346;10.248;2023-11-18T11:40:22;10.38;;;5.00;;
82930;SDS011;72705;53.346;10.248;2023-11-18T11:42:49;10.15;;;4.25;;
82930;SDS011;72705;53.346;10.248;2023-11-18T11:45:21;11.55;;;5.03;;
82930;SDS011;72705;53.346;10.248;2023-11-18T11:47:53;9.52;;;4.60;;
82930;SDS011;72705;53.346;10.248;2023-11-18T11:50:37;10.13;;;4.43;;
82930;SDS011;72705;53.346;10.248;2023-11-18T11:53:15;11.60;;;5.13;;
82930;SDS011;72705;53.346;10.248;2023-11-18T11:55:46;11.15;;;4.50;;
82930;SDS011;72705;53.346;10.248;2023-11-18T11:58:29;10.15;;;4.68;;
82930;SDS011;72705;53.346;10.248;2023-11-18T12:00:59;9.48;;;4.90;;
82930;SDS011;72705;53.346;10.248;2023-11-18T12:03:26;13.93;;;6.22;;
82930;SDS011;72705;53.346;10.248;2023-11-18T12:05:55;12.98;;;6.30;;
82930;SDS011;72705;53.346;10.248;2023-11-18T12:08:22;10.20;;;5.55;;
82930;SDS011;72705;53.346;10.248;2023-11-18T12:10:51;12.10;;;5.38;;
82930;SDS011;72705;53.346;10.248;2023-11-18T12:13:19;11.85;;;5.45;;
82930;SDS011;72705;53.346;10.248;2023-11-18T12:15:54;14.43;;;5.43;;
82930;SDS011;72705;53.346;10.248;2023-11-18T12:18:28;14.43;;;5.70;;
82930;SDS011;72705;53.346;10.248;2023-11-18T12:20:57;11.38;;;6.15;;
82930;SDS011;72705;53.346;10.248;2023-11-18T12:23:27;16.00;;;6.75;;
82930;SDS011;72705;53.346;10.248;2023-11-18T12:25:53;13.15;;;6.35;;
82930;SDS011;72705;53.346;10.248;2023-11-18T12:28:32;13.23;;;6.05;;
82930;SDS011;72705;53.346;10.248;2023-11-18T12:31:02;11.60;;;5.68;;
82930;SDS011;72705;53.346;10.248;2023-11-18T12:36:50;14.82;;;6.50;;
82930;SDS011;72705;53.346;10.248;2023-11-18T12:42:06;14.27;;;6.20;;
82930;SDS011;72705;53.346;10.248;2023-11-18T12:45:29;16.17;;;6.47;;
82930;SDS011;72705;53.346;10.248;2023-11-18T12:47:44;16.05;;;6.78;;
82930;SDS011;72705;53.346;10.248;2023-11-18T12:50:13;16.35;;;7.63;;
82930;SDS011;72705;53.346;10.248;2023-11-18T12:52:51;15.63;;;7.05;;
82930;SDS011;72705;53.346;10.248;2023-11-18T12:55:16;16.23;;;7.57;;
82930;SDS011;72705;53.346;10.248;2023-11-18T12:57:47;16.50;;;7.05;;
82930;SDS011;72705;53.346;10.248;2023-11-18T13:00:13;17.52;;;7.55;;
82930;SDS011;72705;53.346;10.248;2023-11-18T13:02:51;18.35;;;7.45;;
82930;SDS011;72705;53.346;10.248;2023-11-18T13:05:20;17.08;;;7.40;;
82930;SDS011;72705;53.346;10.248;2023-11-18T13:07:45;15.65;;;6.82;;
82930;SDS011;72705;53.346;10.248;2023-11-18T13:10:12;15.32;;;7.50;;
82930;SDS011;72705;53.346;10.248;2023-11-18T13:12:40;15.30;;;7.00;;
82930;SDS011;72705;53.346;10.248;2023-11-18T13:15:08;17.17;;;7.20;;
82930;SDS011;72705;53.346;10.248;2023-11-18T13:17:34;16.17;;;6.88;;
82930;SDS011;72705;53.346;10.248;2023-11-18T13:20:10;18.92;;;8.10;;
82930;SDS011;72705;53.346;10.248;2023-11-18T13:22:38;19.00;;;6.97;;
82930;SDS011;72705;53.346;10.248;2023-11-18T13:25:04;14.40;;;7.75;;
82930;SDS011;72705;53.346;10.248;2023-11-18T13:27:30;14.23;;;6.65;;
82930;SDS011;72705;53.346;10.248;2023-11-18T13:29:57;15.80;;;7.28;;
82930;SDS011;72705;53.346;10.248;2023-11-18T13:32:23;12.80;;;6.28;;
82930;SDS011;72705;53.346;10.248;2023-11-18T13:34:50;16.27;;;7.18;;
82930;SDS011;72705;53.346;10.248;2023-11-18T13:37:16;16.08;;;7.15;;
82930;SDS011;72705;53.346;10.248;2023-11-18T13:39:43;13.52;;;6.43;;
82930;SDS011;72705;53.346;10.248;2023-11-18T13:42:19;13.02;;;6.30;;
82930;SDS011;72705;53.346;10.248;2023-11-18T13:44:46;13.57;;;6.38;;
82930;SDS011;72705;53.346;10.248;2023-11-18T13:47:13;15.30;;;5.97;;
82930;SDS011;72705;53.346;10.248;2023-11-18T13:52:07;13.65;;;5.75;;
82930;SDS011;72705;53.346;10.248;2023-11-18T13:54:35;14.02;;;5.60;;
82930;SDS011;72705;53.346;10.248;2023-11-18T13:57:02;16.70;;;8.32;;
82930;SDS011;72705;53.346;10.248;2023-11-18T13:59:28;16.80;;;6.53;;
82930;SDS011;72705;53.346;10.248;2023-11-18T14:01:54;15.15;;;7.35;;
82930;SDS011;72705;53.346;10.248;2023-11-18T14:04:24;20.48;;;8.25;;
82930;SDS011;72705;53.346;10.248;2023-11-18T14:06:51;23.98;;;10.00;;
82930;SDS011;72705;53.346;10.248;2023-11-18T14:09:18;25.20;;;8.57;;
82930;SDS011;72705;53.346;10.248;2023-11-18T14:11:47;24.55;;;10.07;;
82930;SDS011;72705;53.346;10.248;2023-11-18T14:14:13;28.00;;;8.65;;
82930;SDS011;72705;53.346;10.248;2023-11-18T14:16:39;23.70;;;8.63;;
82930;SDS011;72705;53.346;10.248;2023-11-18T14:19:05;25.60;;;8.35;;
82930;SDS011;72705;53.346;10.248;2023-11-18T14:21:31;18.27;;;7.40;;
82930;SDS011;72705;53.346;10.248;2023-11-18T14:23:57;18.90;;;6.15;;
82930;SDS011;72705;53.346;10.248;2023-11-18T14:26:27;21.55;;;8.20;;
82930;SDS011;72705;53.346;10.248;2023-11-18T14:28:52;23.13;;;6.88;;
82930;SDS011;72705;53.346;10.248;2023-11-18T14:31:17;15.27;;;6.03;;
82930;SDS011;72705;53.346;10.248;2023-11-18T14:33:43;12.45;;;5.65;;
82930;SDS011;72705;53.346;10.248;2023-11-18T14:36:09;17.50;;;6.65;;
82930;SDS011;72705;53.346;10.248;2023-11-18T14:38:34;13.25;;;5.80;;
82930;SDS011;72705;53.346;10.248;2023-11-18T14:41:01;12.65;;;5.03;;
82930;SDS011;72705;53.346;10.248;2023-11-18T14:43:28;11.27;;;5.88;;
82930;SDS011;72705;53.346;10.248;2023-11-18T14:45:54;9.38;;;5.15;;
82930;SDS011;72705;53.346;10.248;2023-11-18T14:48:20;11.23;;;4.87;;